Time;durP1;ratioP1;P1;durP2;ratioP2;P2;SDS_P1;SDS_P2;PMS_P1;PMS_P2;Temp;Humidity;BMP_temperature;BMP_pressure;BME280_temperature;BME280_humidity;BME280_pressure;Samples;Min_cycle;Max_cycle;Signal;HPM_P1;HPM_P2
2023/07/31 00:00:31;;;;;;;5.68;4.00;;;;;;;;;;10227869;28;20070;-82
2023/07/31 00:05:31;;;;;;;5.47;4.07;;;;;;;;;;10227801;28;20125;-81
2023/07/31 00:10:40;;;;;;;6.28;4.35;;;;;;;;;;10212826;28;20086;-82
2023/07/31 00:15:41;;;;;;;6.65;3.97;;;;;;;;;;10231677;28;20099;-79
2023/07/31 00:20:41;;;;;;;4.13;3.73;;;;;;;;;;10219359;29;20019;-83
2023/07/31 00:25:43;;;;;;;6.32;3.78;;;;;;;;;;10204822;28;20106;-83
2023/07/31 00:30:44;;;;;;;6.18;3.25;;;;;;;;;;10228737;29;20162;-83
2023/07/31 00:35:44;;;;;;;6.10;3.95;;;;;;;;;;10207620;29;20082;-81
2023/07/31 00:40:44;;;;;;;5.78;3.97;;;;;;;;;;10245500;28;20027;-79
2023/07/31 00:45:45;;;;;;;4.40;3.70;;;;;;;;;;10223242;29;20019;-79
2023/07/31 00:50:45;;;;;;;7.00;5.00;;;;;;;;;;10206456;28;20027;-82
2023/07/31 00:55:45;;;;;;;8.20;4.50;;;;;;;;;;10233618;28;20114;-81
2023/07/31 01:00:46;;;;;;;6.67;5.10;;;;;;;;;;10235584;28;20305;-81
2023/07/31 01:05:56;;;;;;;10.48;6.50;;;;;;;;;;10221367;29;20693;-83
2023/07/31 01:11:00;;;;;;;10.75;6.18;;;;;;;;;;10181138;29;20082;-83
2023/07/31 01:16:01;;;;;;;8.20;7.15;;;;;;;;;;10198709;29;20075;-82
2023/07/31 01:21:09;;;;;;;11.60;7.75;;;;;;;;;;10198946;29;20083;-82
2023/07/31 01:26:32;;;;;;;13.93;9.85;;;;;;;;;;10223172;29;20027;-84
2023/07/31 01:31:37;;;;;;;13.75;9.98;;;;;;;;;;10202514;29;20032;-78
2023/07/31 01:36:38;;;;;;;14.48;11.30;;;;;;;;;;10209212;28;20407;-84
2023/07/31 01:41:40;;;;;;;20.67;13.00;;;;;;;;;;10202252;29;20034;-84
2023/07/31 01:46:41;;;;;;;22.95;15.18;;;;;;;;;;10204882;29;20050;-76
2023/07/31 01:51:41;;;;;;;24.70;17.57;;;;;;;;;;10212054;29;20412;-79
2023/07/31 01:56:43;;;;;;;24.35;18.23;;;;;;;;;;10217053;29;20016;-85
2023/07/31 02:01:45;;;;;;;30.52;20.95;;;;;;;;;;10210372;29;20091;-86
2023/07/31 02:12:14;;;;;;;36.45;23.13;;;;;;;;;;10234738;28;20035;-83
2023/07/31 02:17:14;;;;;;;34.47;23.45;;;;;;;;;;10238209;29;20063;-77
2023/07/31 02:22:15;;;;;;;29.85;20.77;;;;;;;;;;10226545;28;20106;-83
2023/07/31 02:27:15;;;;;;;35.30;23.90;;;;;;;;;;10221735;29;20054;-81
2023/07/31 02:32:21;;;;;;;31.57;21.57;;;;;;;;;;10221039;29;20263;-77
2023/07/31 02:37:21;;;;;;;31.73;21.35;;;;;;;;;;10227324;28;20023;-82
2023/07/31 02:42:22;;;;;;;32.40;21.92;;;;;;;;;;10225093;28;20370;-81
2023/07/31 02:47:22;;;;;;;30.23;21.20;;;;;;;;;;10233028;28;20023;-85
2023/07/31 02:52:22;;;;;;;35.70;20.75;;;;;;;;;;10252433;28;20111;-82
2023/07/31 02:57:24;;;;;;;33.03;21.02;;;;;;;;;;10226175;29;20491;-87
2023/07/31 03:02:24;;;;;;;35.47;20.75;;;;;;;;;;10214071;29;20027;-80
2023/07/31 03:07:24;;;;;;;29.15;20.42;;;;;;;;;;10218963;29;20431;-80
2023/07/31 03:12:25;;;;;;;32.03;19.93;;;;;;;;;;10224366;28;20023;-88
2023/07/31 03:17:25;;;;;;;29.13;19.80;;;;;;;;;;10225937;29;20027;-81
2023/07/31 03:22:25;;;;;;;28.27;20.23;;;;;;;;;;10223160;28;20255;-80
2023/07/31 03:27:25;;;;;;;31.25;20.02;;;;;;;;;;10225196;28;20086;-82
2023/07/31 03:32:26;;;;;;;32.22;20.38;;;;;;;;;;10227604;28;20023;-85
2023/07/31 03:37:26;;;;;;;30.67;20.80;;;;;;;;;;10225981;28;20031;-81
2023/07/31 03:42:26;;;;;;;28.33;19.10;;;;;;;;;;10230652;28;20023;-79
2023/07/31 03:47:27;;;;;;;32.67;22.17;;;;;;;;;;10240845;28;20023;-83
2023/07/31 03:52:27;;;;;;;30.73;20.93;;;;;;;;;;10225846;28;20023;-79
2023/07/31 03:57:27;;;;;;;30.23;20.95;;;;;;;;;;10222975;29;20399;-80
2023/07/31 04:02:35;;;;;;;37.05;22.35;;;;;;;;;;10227386;28;20031;-82
2023/07/31 04:07:36;;;;;;;;;;;;;;;;;;10256688;28;20123;-83
2023/07/31 04:12:39;;;;;;;37.60;22.60;;;;;;;;;;10254308;28;19911;-82
2023/07/31 04:17:50;;;;;;;32.22;22.00;;;;;;;;;;10258256;28;20035;-86
2023/07/31 04:22:50;;;;;;;34.15;21.48;;;;;;;;;;10197815;28;20270;-81
2023/07/31 04:27:51;;;;;;;34.75;19.95;;;;;;;;;;10226557;28;20392;-78
2023/07/31 04:32:51;;;;;;;39.17;22.00;;;;;;;;;;10224058;28;20478;-80
2023/07/31 04:37:51;;;;;;;37.35;21.83;;;;;;;;;;10227699;28;20094;-81
2023/07/31 04:42:51;;;;;;;34.30;20.77;;;;;;;;;;10209890;29;20091;-83
2023/07/31 04:48:01;;;;;;;31.67;20.50;;;;;;;;;;10229385;28;20027;-80
2023/07/31 04:53:01;;;;;;;33.38;21.50;;;;;;;;;;10219466;28;20038;-79
2023/07/31 04:58:02;;;;;;;31.38;19.38;;;;;;;;;;10222787;29;20046;-80
2023/07/31 05:03:02;;;;;;;34.57;20.03;;;;;;;;;;10218632;28;20122;-80
2023/07/31 05:08:02;;;;;;;28.27;18.20;;;;;;;;;;10203027;28;20044;-80
2023/07/31 05:13:03;;;;;;;28.85;18.20;;;;;;;;;;10223095;28;20118;-84
2023/07/31 05:18:03;;;;;;;27.67;16.98;;;;;;;;;;10223645;29;20130;-81
2023/07/31 05:23:03;;;;;;;26.07;16.90;;;;;;;;;;10211072;28;20088;-83
2023/07/31 05:28:04;;;;;;;22.73;16.02;;;;;;;;;;10220390;28;20027;-79
2023/07/31 05:33:04;;;;;;;21.03;14.63;;;;;;;;;;10208940;28;20478;-82
2023/07/31 05:38:04;;;;;;;26.48;16.05;;;;;;;;;;10237208;28;20389;-80
2023/07/31 05:43:06;;;;;;;17.35;12.45;;;;;;;;;;10206408;29;20630;-79
2023/07/31 05:48:06;;;;;;;18.38;12.40;;;;;;;;;;10206595;29;20034;-81
2023/07/31 05:53:07;;;;;;;15.93;11.32;;;;;;;;;;10218711;28;20020;-77
2023/07/31 05:58:08;;;;;;;10.15;8.25;;;;;;;;;;10211916;29;20026;-80
2023/07/31 06:03:08;;;;;;;10.73;8.73;;;;;;;;;;10212823;29;20035;-84
2023/07/31 06:08:08;;;;;;;10.65;6.57;;;;;;;;;;10213915;29;20146;-83
2023/07/31 06:13:09;;;;;;;7.90;6.83;;;;;;;;;;10199033;28;20016;-78
2023/07/31 06:18:10;;;;;;;11.93;6.32;;;;;;;;;;10205498;28;20024;-79
2023/07/31 06:23:10;;;;;;;11.65;5.28;;;;;;;;;;10223969;28;20028;-82
2023/07/31 06:28:12;;;;;;;7.40;4.10;;;;;;;;;;10198229;28;20511;-82
2023/07/31 06:33:12;;;;;;;5.15;3.90;;;;;;;;;;10234709;28;20093;-83
2023/07/31 06:38:13;;;;;;;8.18;3.20;;;;;;;;;;10227665;28;20027;-81
2023/07/31 06:43:13;;;;;;;5.43;3.38;;;;;;;;;;10206891;29;20110;-80
2023/07/31 06:48:13;;;;;;;5.65;3.30;;;;;;;;;;10207934;29;20051;-77
2023/07/31 06:53:14;;;;;;;5.55;3.88;;;;;;;;;;10224791;28;20377;-79
2023/07/31 06:58:14;;;;;;;5.70;3.43;;;;;;;;;;10213861;28;20031;-83
2023/07/31 07:03:14;;;;;;;3.60;2.80;;;;;;;;;;10207044;28;20487;-85
2023/07/31 07:08:15;;;;;;;4.72;2.88;;;;;;;;;;10226441;29;20054;-79
2023/07/31 07:13:15;;;;;;;3.83;2.75;;;;;;;;;;10217181;29;20015;-79
2023/07/31 07:18:16;;;;;;;3.08;2.28;;;;;;;;;;10223901;28;20359;-78
2023/07/31 07:23:16;;;;;;;3.35;2.38;;;;;;;;;;10212181;28;20145;-78
2023/07/31 07:28:16;;;;;;;2.63;1.80;;;;;;;;;;10205376;29;20035;-78
2023/07/31 07:33:16;;;;;;;1.70;1.60;;;;;;;;;;10219015;28;20046;-77
2023/07/31 07:38:19;;;;;;;3.75;1.92;;;;;;;;;;10220234;28;20496;-88
2023/07/31 07:43:19;;;;;;;7.72;3.35;;;;;;;;;;10232963;28;20023;-86
2023/07/31 07:48:19;;;;;;;5.45;2.25;;;;;;;;;;10209373;29;20020;-78
2023/07/31 07:53:20;;;;;;;5.15;2.90;;;;;;;;;;10219257;28;20060;-82
2023/07/31 07:58:20;;;;;;;4.47;2.63;;;;;;;;;;10219227;29;20031;-77
2023/07/31 08:03:20;;;;;;;4.47;2.20;;;;;;;;;;10210596;28;20031;-77
2023/07/31 08:08:20;;;;;;;3.77;1.90;;;;;;;;;;10236950;28;20057;-81
2023/07/31 08:13:21;;;;;;;2.67;1.50;;;;;;;;;;10208360;29;20015;-77
2023/07/31 08:18:22;;;;;;;3.42;1.67;;;;;;;;;;10210727;28;20432;-86
2023/07/31 08:23:23;;;;;;;11.55;3.22;;;;;;;;;;10236075;28;20034;-82
2023/07/31 08:28:23;;;;;;;4.65;2.15;;;;;;;;;;10234698;28;20046;-82
2023/07/31 08:33:23;;;;;;;4.37;2.27;;;;;;;;;;10209183;28;20035;-77
2023/07/31 08:38:25;;;;;;;3.90;1.80;;;;;;;;;;10200935;28;20070;-82
2023/07/31 08:43:26;;;;;;;2.20;1.75;;;;;;;;;;10230655;28;20026;-78
2023/07/31 08:48:28;;;;;;;3.25;1.77;;;;;;;;;;10240288;29;20027;-78
2023/07/31 08:53:28;;;;;;;4.47;1.50;;;;;;;;;;10193503;29;20026;-85
2023/07/31 08:58:31;;;;;;;3.70;1.85;;;;;;;;;;10239632;28;20027;-76
2023/07/31 09:03:33;;;;;;;1.83;1.40;;;;;;;;;;10223356;29;20103;-77
2023/07/31 09:08:34;;;;;;;2.38;1.77;;;;;;;;;;10208794;28;20496;-77
2023/07/31 09:13:34;;;;;;;3.43;2.03;;;;;;;;;;10224392;28;20024;-81
2023/07/31 09:18:52;;;;;;;3.10;1.23;;;;;;;;;;10204579;29;20055;-78
2023/07/31 09:23:54;;;;;;;2.63;1.75;;;;;;;;;;10211298;28;20019;-82
2023/07/31 09:28:55;;;;;;;2.60;1.63;;;;;;;;;;10224020;29;20027;-78
2023/07/31 09:33:58;;;;;;;4.15;1.63;;;;;;;;;;10219628;28;20027;-77
2023/07/31 09:39:05;;;;;;;2.45;1.67;;;;;;;;;;10211195;28;20023;-78
2023/07/31 09:44:05;;;;;;;4.32;1.80;;;;;;;;;;10207641;28;20028;-75
2023/07/31 09:49:05;;;;;;;3.63;2.27;;;;;;;;;;10237949;28;20408;-81
2023/07/31 09:54:13;;;;;;;3.90;1.70;;;;;;;;;;10207175;28;20110;-77
2023/07/31 09:59:14;;;;;;;3.58;1.92;;;;;;;;;;10218915;29;20799;-85
2023/07/31 10:04:15;;;;;;;4.63;1.88;;;;;;;;;;10206205;29;20019;-81
2023/07/31 10:09:18;;;;;;;3.33;2.22;;;;;;;;;;10207505;29;20110;-86
2023/07/31 10:14:21;;;;;;;3.75;1.92;;;;;;;;;;10208409;29;20445;-78
2023/07/31 10:19:22;;;;;;;4.18;1.55;;;;;;;;;;10217483;29;20043;-76
2023/07/31 10:24:22;;;;;;;1.97;1.40;;;;;;;;;;10205904;28;20925;-77
2023/07/31 10:29:24;;;;;;;3.28;1.40;;;;;;;;;;10222433;29;20299;-77
2023/07/31 10:34:24;;;;;;;3.50;1.63;;;;;;;;;;10220982;29;20015;-78
2023/07/31 10:39:40;;;;;;;2.10;1.10;;;;;;;;;;10208567;28;20019;-78
2023/07/31 10:44:44;;;;;;;3.75;1.38;;;;;;;;;;10221462;29;20024;-80
2023/07/31 10:49:44;;;;;;;4.45;1.10;;;;;;;;;;10218343;28;20046;-81
2023/07/31 10:54:45;;;;;;;3.10;1.40;;;;;;;;;;10192017;28;20027;-77
2023/07/31 10:59:45;;;;;;;0.75;0.75;;;;;;;;;;10230364;29;20404;-76
2023/07/31 11:05:05;;;;;;;2.90;1.07;;;;;;;;;;10221625;28;20067;-77
2023/07/31 11:10:05;;;;;;;1.27;1.17;;;;;;;;;;10211170;28;20071;-82
2023/07/31 11:15:06;;;;;;;1.40;1.20;;;;;;;;;;10213777;29;20122;-79
2023/07/31 11:20:10;;;;;;;3.22;1.30;;;;;;;;;;10214913;28;20421;-82
2023/07/31 11:25:10;;;;;;;4.68;1.65;;;;;;;;;;10215371;28;20100;-86
2023/07/31 11:30:11;;;;;;;5.47;1.60;;;;;;;;;;10241591;28;20499;-87
2023/07/31 11:35:14;;;;;;;2.10;1.25;;;;;;;;;;10207047;29;20026;-85
2023/07/31 11:40:15;;;;;;;2.30;1.38;;;;;;;;;;10240097;28;20027;-82
2023/07/31 11:45:15;;;;;;;4.45;1.95;;;;;;;;;;10213881;29;20019;-86
2023/07/31 11:50:16;;;;;;;4.37;1.40;;;;;;;;;;10208836;28;20377;-78
2023/07/31 11:55:16;;;;;;;3.55;1.80;;;;;;;;;;10209568;29;20032;-80
2023/07/31 12:00:17;;;;;;;2.22;1.70;;;;;;;;;;10202108;29;20027;-78
2023/07/31 12:05:17;;;;;;;5.65;2.08;;;;;;;;;;10209774;29;20098;-79
2023/07/31 12:10:28;;;;;;;3.63;2.47;;;;;;;;;;10222913;28;20319;-82
2023/07/31 12:15:31;;;;;;;3.20;1.67;;;;;;;;;;10183805;28;20567;-85
2023/07/31 12:20:33;;;;;;;3.63;1.80;;;;;;;;;;10235902;28;20028;-78
2023/07/31 12:25:34;;;;;;;2.63;2.22;;;;;;;;;;10229416;28;20407;-86
2023/07/31 12:30:34;;;;;;;5.90;2.50;;;;;;;;;;10228975;28;20019;-80
2023/07/31 12:35:37;;;;;;;6.65;3.90;;;;;;;;;;10222052;29;20507;-80
2023/07/31 12:40:38;;;;;;;6.88;3.45;;;;;;;;;;10204652;28;20040;-78
2023/07/31 12:45:38;;;;;;;4.82;4.07;;;;;;;;;;10208805;29;20023;-83
2023/07/31 12:50:39;;;;;;;7.77;3.90;;;;;;;;;;10239669;28;20122;-78
2023/07/31 12:55:39;;;;;;;6.30;3.50;;;;;;;;;;10217266;28;20039;-79
2023/07/31 13:00:39;;;;;;;4.57;3.60;;;;;;;;;;10221632;28;20030;-77
2023/07/31 13:05:40;;;;;;;4.80;3.30;;;;;;;;;;10236553;28;20116;-80
2023/07/31 13:10:40;;;;;;;4.90;4.05;;;;;;;;;;10185406;29;20048;-81
2023/07/31 13:15:41;;;;;;;5.93;3.72;;;;;;;;;;10174152;29;20484;-83
2023/07/31 13:20:41;;;;;;;4.82;4.05;;;;;;;;;;10181350;29;20028;-77
2023/07/31 13:25:42;;;;;;;6.55;4.70;;;;;;;;;;10203837;28;20023;-82
2023/07/31 13:30:43;;;;;;;5.43;3.92;;;;;;;;;;10201760;29;20024;-77
2023/07/31 13:35:43;;;;;;;9.65;4.55;;;;;;;;;;10173653;29;20020;-79
2023/07/31 13:40:43;;;;;;;7.60;4.70;;;;;;;;;;10190157;29;20028;-78
2023/07/31 13:45:44;;;;;;;4.53;3.70;;;;;;;;;;10160182;29;20071;-83
2023/07/31 13:50:44;;;;;;;4.67;3.50;;;;;;;;;;10157956;29;20087;-82
2023/07/31 13:55:49;;;;;;;7.55;3.22;;;;;;;;;;10159547;29;20024;-83
2023/07/31 14:00:50;;;;;;;7.53;4.75;;;;;;;;;;10160077;29;20024;-77
2023/07/31 14:05:51;;;;;;;6.63;3.60;;;;;;;;;;10190074;28;20048;-79
2023/07/31 14:10:52;;;;;;;5.13;3.22;;;;;;;;;;10189438;29;20509;-78
2023/07/31 14:15:52;;;;;;;6.30;3.27;;;;;;;;;;10157726;29;20024;-83
2023/07/31 14:20:53;;;;;;;8.57;3.00;;;;;;;;;;10158757;29;20555;-78
2023/07/31 14:25:54;;;;;;;4.28;3.40;;;;;;;;;;10160305;29;20028;-77
2023/07/31 14:30:54;;;;;;;7.57;3.58;;;;;;;;;;10158742;29;20040;-79
2023/07/31 14:35:54;;;;;;;6.03;3.83;;;;;;;;;;10158851;29;20016;-79
2023/07/31 14:40:55;;;;;;;4.50;3.50;;;;;;;;;;10166192;29;20024;-77
2023/07/31 14:45:59;;;;;;;5.78;3.30;;;;;;;;;;10164528;29;20396;-79
2023/07/31 14:51:00;;;;;;;5.85;3.55;;;;;;;;;;10172902;29;20646;-78
2023/07/31 14:56:00;;;;;;;5.22;3.45;;;;;;;;;;10176856;29;20020;-77
2023/07/31 15:01:00;;;;;;;4.10;3.58;;;;;;;;;;10197085;28;20404;-79
2023/07/31 15:06:01;;;;;;;3.90;3.45;;;;;;;;;;10169072;29;20424;-82
2023/07/31 15:11:02;;;;;;;6.17;4.13;;;;;;;;;;10213093;28;20043;-81
2023/07/31 15:16:03;;;;;;;4.18;2.90;;;;;;;;;;10207171;29;20020;-85
2023/07/31 15:21:04;;;;;;;5.73;3.43;;;;;;;;;;10181975;29;20024;-78
2023/07/31 15:26:04;;;;;;;4.00;3.22;;;;;;;;;;10188173;29;20026;-78
2023/07/31 15:31:05;;;;;;;7.15;2.65;;;;;;;;;;10188027;29;20586;-78
2023/07/31 15:36:06;;;;;;;6.22;2.65;;;;;;;;;;10205996;29;20044;-77
2023/07/31 15:41:06;;;;;;;14.63;2.87;;;;;;;;;;10201448;29;20082;-82
2023/07/31 15:46:07;;;;;;;6.05;3.03;;;;;;;;;;10182709;29;20699;-79
2023/07/31 15:51:07;;;;;;;9.23;2.40;;;;;;;;;;10193873;29;20497;-77
2023/07/31 15:56:08;;;;;;;4.20;2.10;;;;;;;;;;10191621;29;20082;-86
2023/07/31 16:01:08;;;;;;;4.47;2.17;;;;;;;;;;10188688;29;20496;-78
2023/07/31 16:06:08;;;;;;;3.67;1.93;;;;;;;;;;10188552;29;20062;-83
2023/07/31 16:11:09;;;;;;;4.43;1.70;;;;;;;;;;10202769;28;20585;-78
2023/07/31 16:16:09;;;;;;;6.35;1.58;;;;;;;;;;10188541;29;20020;-77
2023/07/31 16:21:09;;;;;;;4.68;1.40;;;;;;;;;;10190664;29;20023;-80
2023/07/31 16:26:10;;;;;;;1.77;1.40;;;;;;;;;;10184750;29;20031;-78
2023/07/31 16:31:10;;;;;;;7.03;1.83;;;;;;;;;;10176061;29;20031;-78
2023/07/31 16:36:10;;;;;;;2.95;1.63;;;;;;;;;;10182572;29;20036;-82
2023/07/31 16:41:11;;;;;;;2.70;1.57;;;;;;;;;;10175763;29;20039;-78
2023/07/31 16:46:11;;;;;;;2.22;1.58;;;;;;;;;;10200695;29;20417;-78
2023/07/31 16:51:13;;;;;;;1.97;1.60;;;;;;;;;;10191286;29;20020;-79
2023/07/31 16:56:14;;;;;;;2.50;1.65;;;;;;;;;;10200075;29;20485;-78
2023/07/31 17:01:14;;;;;;;3.30;1.50;;;;;;;;;;10186661;29;20035;-76
2023/07/31 17:06:15;;;;;;;2.65;1.30;;;;;;;;;;10199299;29;20114;-77
2023/07/31 17:11:15;;;;;;;2.03;1.63;;;;;;;;;;10185364;29;20048;-77
2023/07/31 17:16:15;;;;;;;3.10;1.52;;;;;;;;;;10175000;29;20484;-76
2023/07/31 17:21:15;;;;;;;4.95;2.05;;;;;;;;;;10195797;29;20107;-76
2023/07/31 17:26:16;;;;;;;1.80;1.60;;;;;;;;;;10185307;29;20027;-78
2023/07/31 17:31:16;;;;;;;2.65;1.30;;;;;;;;;;10199738;29;20098;-79
2023/07/31 17:36:16;;;;;;;4.72;1.70;;;;;;;;;;10193001;29;20370;-84
2023/07/31 17:41:17;;;;;;;2.90;1.70;;;;;;;;;;10177598;29;20419;-84
2023/07/31 17:46:18;;;;;;;2.70;1.70;;;;;;;;;;10193994;29;20054;-82
2023/07/31 17:51:18;;;;;;;2.75;1.85;;;;;;;;;;10183421;29;20031;-82
2023/07/31 17:56:18;;;;;;;2.20;2.00;;;;;;;;;;10188336;29;20019;-82
2023/07/31 18:01:18;;;;;;;2.67;2.20;;;;;;;;;;10181650;29;20572;-78
2023/07/31 18:06:19;;;;;;;4.25;2.70;;;;;;;;;;10198316;28;20036;-78
2023/07/31 18:11:20;;;;;;;3.55;2.60;;;;;;;;;;10213224;29;20170;-78
2023/07/31 18:16:20;;;;;;;3.60;2.60;;;;;;;;;;10210282;28;20407;-80
2023/07/31 18:21:22;;;;;;;3.35;2.80;;;;;;;;;;10222797;28;20027;-80
2023/07/31 18:26:26;;;;;;;4.53;2.72;;;;;;;;;;10233700;28;20054;-81
2023/07/31 18:31:26;;;;;;;6.20;2.90;;;;;;;;;;10213341;28;20113;-81
2023/07/31 18:36:26;;;;;;;5.55;2.70;;;;;;;;;;10240019;28;20019;-80
2023/07/31 18:41:27;;;;;;;4.03;3.60;;;;;;;;;;10245731;28;20484;-85
2023/07/31 18:46:27;;;;;;;5.05;3.30;;;;;;;;;;10218075;29;20518;-82
2023/07/31 18:51:28;;;;;;;5.40;3.70;;;;;;;;;;10235725;28;20114;-81
2023/07/31 18:56:28;;;;;;;4.80;2.83;;;;;;;;;;10226051;28;20042;-76
2023/07/31 19:01:29;;;;;;;7.68;2.28;;;;;;;;;;10208160;29;20047;-78
2023/07/31 19:06:29;;;;;;;3.08;2.17;;;;;;;;;;10207094;29;20038;-80
2023/07/31 19:11:30;;;;;;;6.00;2.50;;;;;;;;;;10224172;28;20066;-81
2023/07/31 19:16:30;;;;;;;2.80;2.17;;;;;;;;;;10206544;28;20542;-79
2023/07/31 19:21:30;;;;;;;3.50;2.35;;;;;;;;;;10196569;28;20519;-78
2023/07/31 19:26:30;;;;;;;3.67;2.60;;;;;;;;;;10238980;28;20470;-81
2023/07/31 19:31:31;;;;;;;6.40;2.30;;;;;;;;;;10238603;28;20149;-79
2023/07/31 19:36:33;;;;;;;2.75;2.13;;;;;;;;;;10216105;28;20279;-81
2023/07/31 19:41:33;;;;;;;5.15;2.53;;;;;;;;;;10215734;28;20031;-78
2023/07/31 19:46:41;;;;;;;4.03;2.40;;;;;;;;;;10225648;29;20039;-79
2023/07/31 19:51:43;;;;;;;2.10;1.90;;;;;;;;;;10218466;28;20109;-83
2023/07/31 19:56:43;;;;;;;2.53;1.98;;;;;;;;;;10208879;28;20192;-83
2023/07/31 20:01:44;;;;;;;3.50;1.80;;;;;;;;;;10186859;29;20031;-84
2023/07/31 20:06:45;;;;;;;3.28;1.95;;;;;;;;;;10208052;29;20488;-81
2023/07/31 20:11:45;;;;;;;2.55;1.80;;;;;;;;;;10232642;28;20109;-84
2023/07/31 20:16:45;;;;;;;3.40;2.35;;;;;;;;;;10214706;28;20027;-83
2023/07/31 20:21:47;;;;;;;2.72;1.88;;;;;;;;;;10210870;28;20646;-79
2023/07/31 20:26:47;;;;;;;4.88;2.47;;;;;;;;;;10232268;28;20039;-83
2023/07/31 20:31:49;;;;;;;5.80;1.92;;;;;;;;;;10212511;28;20042;-82
2023/07/31 20:36:49;;;;;;;6.38;2.03;;;;;;;;;;10204626;28;20050;-83
2023/07/31 20:41:51;;;;;;;3.03;2.00;;;;;;;;;;10214446;28;20035;-80
2023/07/31 20:46:52;;;;;;;2.47;1.90;;;;;;;;;;10212557;28;20023;-81
2023/07/31 20:51:53;;;;;;;5.88;2.20;;;;;;;;;;10232110;29;20030;-84
2023/07/31 20:56:59;;;;;;;2.58;1.88;;;;;;;;;;10215240;28;20090;-86
2023/07/31 21:02:01;;;;;;;5.43;2.20;;;;;;;;;;10224529;28;20033;-82
2023/07/31 21:07:01;;;;;;;2.40;1.90;;;;;;;;;;10234254;28;20047;-82
2023/07/31 21:12:06;;;;;;;1.90;1.70;;;;;;;;;;10212397;28;20029;-78
2023/07/31 21:17:07;;;;;;;4.60;2.13;;;;;;;;;;10230751;29;20470;-81
2023/07/31 21:22:07;;;;;;;4.40;2.10;;;;;;;;;;10220042;28;20031;-79
2023/07/31 21:27:09;;;;;;;3.28;2.40;;;;;;;;;;10229474;28;20122;-78
2023/07/31 21:32:12;;;;;;;2.75;1.88;;;;;;;;;;10231910;28;20147;-79
2023/07/31 21:37:12;;;;;;;2.22;1.65;;;;;;;;;;10236501;28;20031;-81
2023/07/31 21:42:12;;;;;;;3.03;2.58;;;;;;;;;;10216565;28;21169;-76
2023/07/31 21:47:13;;;;;;;2.50;1.67;;;;;;;;;;10223466;28;20027;-75
2023/07/31 21:52:13;;;;;;;2.80;2.03;;;;;;;;;;10205962;28;20097;-82
2023/07/31 21:57:13;;;;;;;6.45;1.92;;;;;;;;;;10225271;28;20473;-75
2023/07/31 22:02:13;;;;;;;2.22;1.85;;;;;;;;;;10203845;29;20567;-75
2023/07/31 22:07:14;;;;;;;2.20;1.77;;;;;;;;;;10202340;28;20661;-74
2023/07/31 22:12:14;;;;;;;3.58;1.92;;;;;;;;;;10204969;29;20448;-73
2023/07/31 22:17:14;;;;;;;3.47;2.75;;;;;;;;;;10204954;29;20028;-74
2023/07/31 22:22:15;;;;;;;6.80;1.85;;;;;;;;;;10205573;29;20039;-74
2023/07/31 22:27:15;;;;;;;2.80;1.42;;;;;;;;;;10206075;29;20061;-75
2023/07/31 22:32:16;;;;;;;4.18;1.85;;;;;;;;;;10221960;28;20102;-78
2023/07/31 22:37:16;;;;;;;3.35;1.65;;;;;;;;;;10204255;28;20047;-78
2023/07/31 22:42:16;;;;;;;4.70;2.17;;;;;;;;;;10219881;28;20151;-77
2023/07/31 22:47:16;;;;;;;3.80;2.45;;;;;;;;;;10204943;28;20016;-74
2023/07/31 22:52:17;;;;;;;3.67;1.98;;;;;;;;;;10220228;28;20082;-77
2023/07/31 22:57:17;;;;;;;3.13;1.80;;;;;;;;;;10219971;28;20012;-78
2023/07/31 23:02:17;;;;;;;3.08;1.70;;;;;;;;;;10213614;28;20022;-73
2023/07/31 23:07:17;;;;;;;3.60;1.60;;;;;;;;;;10212346;28;20574;-75
2023/07/31 23:12:19;;;;;;;2.03;1.70;;;;;;;;;;10212997;29;20019;-78
2023/07/31 23:17:19;;;;;;;3.50;1.67;;;;;;;;;;10194219;28;20016;-79
2023/07/31 23:22:20;;;;;;;5.75;1.92;;;;;;;;;;10229172;28;20030;-80
2023/07/31 23:27:20;;;;;;;4.15;1.80;;;;;;;;;;10213022;28;20086;-80
2023/07/31 23:32:21;;;;;;;4.10;2.40;;;;;;;;;;10212162;28;20015;-79
2023/07/31 23:37:23;;;;;;;2.42;1.67;;;;;;;;;;10212185;28;20420;-81
2023/07/31 23:42:24;;;;;;;2.20;1.92;;;;;;;;;;10228393;28;20427;-80
2023/07/31 23:47:24;;;;;;;5.78;2.13;;;;;;;;;;10225272;28;20516;-79
2023/07/31 23:52:26;;;;;;;2.88;1.90;;;;;;;;;;10228345;28;20016;-80
2023/07/31 23:57:26;;;;;;;2.20;1.88;;;;;;;;;;10231950;28;20543;-76
